Time;durP1;ratioP1;P1;durP2;ratioP2;P2;SDS_P1;SDS_P2;PMS_P1;PMS_P2;Temp;Humidity;BMP_temperature;BMP_pressure;BME280_temperature;BME280_humidity;BME280_pressure;Samples;Min_cycle;Max_cycle;Signal;HPM_P1;HPM_P2
2021/03/05 00:02:19;;;;;;;72.77;31.00;;;;;;;0.17;75.25;95681.09;5090525;28;20237;-63
2021/03/05 00:04:46;;;;;;;80.60;31.93;;;;;;;0.22;76.18;95670.19;5090099;28;20301;-63
2021/03/05 00:07:13;;;;;;;71.40;31.70;;;;;;;0.10;76.01;95679.66;5090440;28;20202;-64
2021/03/05 00:09:40;;;;;;;77.80;31.70;;;;;;;0.07;77.36;95677.53;5090291;28;20202;-63
2021/03/05 00:12:09;;;;;;;67.97;30.47;;;;;;;-0.02;77.94;95669.44;5090387;28;20281;-63
2021/03/05 00:14:37;;;;;;;89.73;35.83;;;;;;;-0.01;79.34;95660.78;5090098;28;20303;-63
2021/03/05 00:17:05;;;;;;;65.30;30.57;;;;;;;-0.04;79.16;95661.22;5090091;28;20202;-64
2021/03/05 00:19:32;;;;;;;67.87;30.73;;;;;;;-0.08;78.80;95667.75;5089852;28;20192;-64
2021/03/05 00:21:59;;;;;;;63.83;27.60;;;;;;;-0.03;79.13;95665.31;5090240;28;20204;-63
2021/03/05 00:24:26;;;;;;;58.57;28.63;;;;;;;0.02;78.52;95665.44;5091533;28;20565;-64
2021/03/05 00:26:52;;;;;;;67.37;29.30;;;;;;;0.07;78.89;95672.44;5094221;28;20693;-64
2021/03/05 00:29:19;;;;;;;52.53;27.20;;;;;;;0.03;77.87;95671.31;5094231;28;20694;-63
2021/03/05 00:31:47;;;;;;;72.10;30.10;;;;;;;0.01;77.93;95668.97;5094092;28;20208;-63
2021/03/05 00:34:14;;;;;;;60.80;28.93;;;;;;;0.03;78.69;95667.00;5093961;28;20326;-63
2021/03/05 00:36:41;;;;;;;64.97;29.63;;;;;;;-0.02;79.77;95665.09;5093966;28;20276;-63
2021/03/05 00:39:08;;;;;;;72.67;30.83;;;;;;;0.08;80.11;95659.44;5093907;28;20220;-63
2021/03/05 00:41:35;;;;;;;59.50;28.80;;;;;;;0.16;79.59;95656.53;5093791;28;20607;-63
2021/03/05 00:44:03;;;;;;;60.87;27.97;;;;;;;0.15;79.16;95654.97;5094161;28;20211;-63
2021/03/05 00:46:30;;;;;;;76.13;33.53;;;;;;;0.31;78.63;95653.50;5093835;28;20223;-63
2021/03/05 00:48:59;;;;;;;60.83;27.37;;;;;;;0.13;78.56;95653.66;5093584;28;20716;-61
2021/03/05 00:51:26;;;;;;;65.03;29.93;;;;;;;0.20;78.77;95662.00;5093843;28;20289;-63
2021/03/05 00:53:53;;;;;;;66.13;30.27;;;;;;;0.12;78.30;95647.78;5093674;28;20227;-63
2021/03/05 00:56:20;;;;;;;59.00;29.17;;;;;;;0.12;77.47;95649.53;5093839;28;20201;-63
2021/03/05 00:58:47;;;;;;;60.97;29.70;;;;;;;0.07;78.15;95637.44;5093257;28;20263;-62
2021/03/05 01:01:14;;;;;;;66.47;31.63;;;;;;;0.16;78.56;95645.53;5093456;28;20200;-63
2021/03/05 01:03:40;;;;;;;68.57;31.13;;;;;;;0.22;79.02;95644.66;5093702;28;20249;-63
2021/03/05 01:06:09;;;;;;;72.13;31.37;;;;;;;0.27;78.44;95632.75;5093766;28;20202;-63
2021/03/05 01:08:36;;;;;;;60.17;29.10;;;;;;;0.28;79.18;95641.19;5093388;28;20223;-63
2021/03/05 01:11:03;;;;;;;65.53;30.50;;;;;;;0.37;78.70;95637.28;5093256;28;20732;-63
2021/03/05 01:13:30;;;;;;;68.07;32.30;;;;;;;0.46;79.80;95635.94;5093054;28;20790;-63
2021/03/05 01:15:57;;;;;;;82.47;37.40;;;;;;;0.45;79.75;95629.25;5093430;28;20196;-63
2021/03/05 01:18:24;;;;;;;83.77;38.33;;;;;;;0.49;80.92;95629.59;5093225;28;21040;-62
2021/03/05 01:20:51;;;;;;;81.60;36.70;;;;;;;0.58;80.27;95630.78;5093186;28;20237;-63
2021/03/05 01:23:20;;;;;;;81.83;37.47;;;;;;;0.50;79.58;95628.59;5093129;28;20288;-64
2021/03/05 01:25:47;;;;;;;83.53;36.07;;;;;;;0.47;80.22;95627.25;5093038;28;20257;-63
2021/03/05 01:28:13;;;;;;;87.63;37.57;;;;;;;0.48;79.90;95633.16;5093241;28;20191;-64
2021/03/05 01:30:41;;;;;;;74.83;35.33;;;;;;;0.48;79.66;95630.59;5093995;28;20279;-63
2021/03/05 01:33:08;;;;;;;72.73;34.30;;;;;;;0.41;79.91;95630.72;5094881;28;20237;-63
2021/03/05 01:35:35;;;;;;;88.73;35.60;;;;;;;0.31;79.37;95638.19;5093669;28;20199;-63
2021/03/05 01:38:02;;;;;;;75.00;35.20;;;;;;;0.30;79.58;95639.22;5092914;28;20189;-64
2021/03/05 01:40:33;;;;;;;72.17;32.83;;;;;;;0.24;79.22;95637.53;5093252;28;20196;-63
2021/03/05 01:43:00;;;;;;;66.67;32.47;;;;;;;0.20;78.82;95636.44;5092878;28;20269;-65
2021/03/05 01:45:29;;;;;;;68.23;31.03;;;;;;;0.05;77.22;95631.00;5092875;28;20202;-64
2021/03/05 01:47:59;;;;;;;69.97;33.57;;;;;;;-0.02;76.85;95642.13;5092698;28;20229;-62
2021/03/05 01:50:30;;;;;;;70.00;32.07;;;;;;;-0.09;77.44;95633.00;5092589;28;20281;-63
2021/03/05 01:52:59;;;;;;;85.47;33.93;;;;;;;-0.27;78.15;95636.47;5092677;28;20233;-63
2021/03/05 01:55:26;;;;;;;69.57;30.07;;;;;;;-0.36;77.79;95642.91;5092662;28;20204;-63
2021/03/05 01:57:55;;;;;;;66.27;30.23;;;;;;;-0.53;77.50;95647.06;5092384;28;20280;-63
2021/03/05 02:00:25;;;;;;;115.10;36.70;;;;;;;-0.60;78.05;95641.31;5092468;28;20234;-63
2021/03/05 02:02:54;;;;;;;81.33;32.83;;;;;;;-0.62;79.41;95643.28;5092723;28;20690;-63
2021/03/05 02:05:24;;;;;;;64.83;29.20;;;;;;;-0.63;80.69;95641.72;5091630;28;20804;-63
2021/03/05 02:07:51;;;;;;;67.73;30.53;;;;;;;-0.57;81.04;95641.66;5092187;28;20279;-64
2021/03/05 02:10:18;;;;;;;60.87;30.70;;;;;;;-0.71;80.73;95637.75;5092190;28;20227;-63
2021/03/05 02:12:45;;;;;;;62.73;29.67;;;;;;;-0.62;82.24;95633.88;5092394;28;20199;-63
2021/03/05 02:15:14;;;;;;;65.43;30.90;;;;;;;-0.56;82.94;95633.00;5092368;28;20250;-63
2021/03/05 02:17:49;;;;;;;75.87;32.53;;;;;;;-0.63;81.86;95636.63;5092378;28;20551;-64
2021/03/05 02:20:30;;;;;;;84.80;35.47;;;;;;;-0.79;81.44;95634.69;5091956;28;20202;-63
2021/03/05 02:23:17;;;;;;;85.83;37.03;;;;;;;-0.81;81.75;95641.81;5092063;28;20282;-63
2021/03/05 02:26:17;;;;;;;71.03;30.07;;;;;;;-0.99;80.77;95645.19;5092199;28;20196;-63
2021/03/05 02:29:34;;;;;;;60.87;28.67;;;;;;;-1.17;79.65;95638.38;5091797;28;20559;-62
2021/03/05 02:32:09;;;;;;;59.17;27.40;;;;;;;-1.09;80.44;95642.38;5091975;28;20654;-64
2021/03/05 02:34:41;;;;;;;85.60;33.57;;;;;;;-1.07;80.63;95636.09;5092236;28;20230;-63
2021/03/05 02:37:10;;;;;;;303.00;83.77;;;;;;;-0.88;83.92;95635.03;5091664;28;20192;-64
2021/03/05 02:39:43;;;;;;;149.33;51.73;;;;;;;-0.87;83.13;95639.13;5091546;28;20304;-62
2021/03/05 02:42:16;;;;;;;130.10;45.13;;;;;;;-0.88;82.66;95640.13;5091478;28;20797;-64
2021/03/05 02:44:47;;;;;;;126.80;43.77;;;;;;;-0.95;82.10;95641.97;5091519;28;20241;-63
2021/03/05 02:47:19;;;;;;;90.40;35.60;;;;;;;-1.09;81.38;95653.34;5091355;28;20211;-63
2021/03/05 02:49:47;;;;;;;56.83;25.33;;;;;;;-1.38;78.28;95654.13;5091434;28;20287;-63
2021/03/05 02:52:19;;;;;;;67.07;28.53;;;;;;;-1.47;76.67;95660.50;5091706;28;20634;-62
2021/03/05 02:54:52;;;;;;;73.30;29.10;;;;;;;-1.65;77.63;95661.28;5091253;28;20304;-63
2021/03/05 02:57:20;;;;;;;67.47;28.83;;;;;;;-1.60;80.42;95658.09;5091305;28;20195;-63
2021/03/05 02:59:51;;;;;;;70.27;28.60;;;;;;;-1.62;81.08;95647.34;5091064;28;20259;-63
2021/03/05 03:02:24;;;;;;;61.43;27.57;;;;;;;-1.54;81.31;95641.94;5091347;28;20192;-63
2021/03/05 03:04:53;;;;;;;56.67;25.53;;;;;;;-1.64;81.44;95649.34;5091027;28;20203;-63
2021/03/05 03:07:21;;;;;;;67.20;29.23;;;;;;;-1.87;81.50;95649.97;5091096;28;20192;-63
2021/03/05 03:09:48;;;;;;;65.10;29.17;;;;;;;-1.85;82.64;95650.53;5090918;28;20192;-61
2021/03/05 03:12:17;;;;;;;57.50;27.37;;;;;;;-1.85;84.47;95653.88;5090893;28;20191;-62
2021/03/05 03:14:46;;;;;;;63.00;27.00;;;;;;;-1.73;84.99;95656.47;5090768;28;20231;-62
2021/03/05 03:17:14;;;;;;;63.83;28.53;;;;;;;-1.69;84.81;95655.06;5090905;28;20193;-63
2021/03/05 03:19:46;;;;;;;59.20;27.70;;;;;;;-1.68;85.56;95655.81;5090981;28;20221;-63
2021/03/05 03:22:13;;;;;;;60.63;28.43;;;;;;;-1.75;86.07;95653.38;5090915;28;20635;-62
2021/03/05 03:24:41;;;;;;;54.80;28.23;;;;;;;-1.70;86.08;95656.06;5090770;28;20275;-63
2021/03/05 03:27:10;;;;;;;53.93;27.90;;;;;;;-1.60;86.13;95665.75;5090760;28;20337;-62
2021/03/05 03:29:37;;;;;;;57.47;26.77;;;;;;;-1.58;86.47;95668.84;5090873;28;20207;-62
2021/03/05 03:32:05;;;;;;;53.00;25.93;;;;;;;-1.58;86.92;95668.84;5090863;28;20294;-62
2021/03/05 03:34:33;;;;;;;55.87;25.93;;;;;;;-1.60;86.38;95666.53;5090453;28;20311;-63
2021/03/05 03:37:01;;;;;;;57.50;25.80;;;;;;;-1.52;86.53;95668.78;5090589;28;20188;-63
2021/03/05 03:39:28;;;;;;;47.00;26.07;;;;;;;-1.53;86.19;95672.31;5090455;28;20677;-62
2021/03/05 03:41:55;;;;;;;53.30;26.67;;;;;;;-1.50;86.44;95669.38;5090339;28;20243;-63
2021/03/05 03:44:25;;;;;;;58.80;26.27;;;;;;;-1.50;86.42;95671.13;5090821;28;20202;-62
2021/03/05 03:46:53;;;;;;;54.10;25.13;;;;;;;-1.53;86.55;95666.44;5090416;28;20249;-62
2021/03/05 03:49:25;;;;;;;60.90;26.70;;;;;;;-1.50;86.97;95678.78;5090467;28;20658;-62
2021/03/05 03:51:59;;;;;;;57.03;27.83;;;;;;;-1.51;86.74;95667.03;5090296;28;20725;-63
2021/03/05 03:54:29;;;;;;;50.80;26.67;;;;;;;-1.48;87.63;95666.56;5090594;28;20231;-63
2021/03/05 03:56:59;;;;;;;50.73;25.77;;;;;;;-1.44;87.80;95667.69;5090297;28;20700;-62
2021/03/05 03:59:27;;;;;;;57.23;25.60;;;;;;;-1.47;87.75;95678.34;5090121;28;20235;-63
2021/03/05 04:01:56;;;;;;;57.30;26.50;;;;;;;-1.44;86.90;95680.44;5090459;28;20688;-63
2021/03/05 04:04:25;;;;;;;53.07;26.20;;;;;;;-1.46;86.38;95677.34;5090360;28;20199;-63
2021/03/05 04:06:53;;;;;;;51.07;25.97;;;;;;;-1.55;86.88;95673.53;5090510;28;20208;-63
2021/03/05 04:09:21;;;;;;;46.70;25.10;;;;;;;-1.42;87.53;95679.25;5090229;28;20192;-63
2021/03/05 04:11:49;;;;;;;51.80;24.77;;;;;;;-1.64;84.55;95679.91;5090090;28;20234;-63
2021/03/05 04:14:16;;;;;;;52.50;26.17;;;;;;;-1.63;84.52;95684.00;5090009;28;20310;-63
2021/03/05 04:16:43;;;;;;;57.37;25.00;;;;;;;-1.70;83.77;95688.38;5089966;28;20286;-63
2021/03/05 04:19:12;;;;;;;54.93;25.63;;;;;;;-1.73;83.65;95689.56;5090002;28;20286;-63
2021/03/05 04:21:39;;;;;;;56.00;25.67;;;;;;;-1.89;84.13;95685.03;5090217;28;20547;-63
2021/03/05 04:24:06;;;;;;;54.33;25.90;;;;;;;-1.88;84.37;95686.59;5089973;28;20289;-62
2021/03/05 04:26:33;;;;;;;53.87;23.77;;;;;;;-1.98;83.53;95689.63;5089918;28;20870;-63
2021/03/05 04:29:01;;;;;;;52.10;23.93;;;;;;;-1.93;82.81;95682.13;5089723;28;20204;-63
2021/03/05 04:31:28;;;;;;;53.77;24.27;;;;;;;-1.90;83.77;95686.81;5089914;28;20229;-63
2021/03/05 04:33:55;;;;;;;43.23;20.27;;;;;;;-1.98;83.62;95687.06;5090072;28;20278;-63
2021/03/05 04:36:22;;;;;;;46.37;20.83;;;;;;;-1.99;84.58;95688.06;5090205;28;20195;-63
2021/03/05 04:38:49;;;;;;;37.30;17.90;;;;;;;-2.03;84.55;95691.22;5089923;28;20198;-63
2021/03/05 04:41:20;;;;;;;46.60;18.83;;;;;;;-2.20;82.08;95696.88;5089830;28;20210;-63
2021/03/05 04:43:47;;;;;;;38.30;19.30;;;;;;;-2.49;80.04;95694.91;5089825;28;20281;-63
2021/03/05 04:46:14;;;;;;;35.73;17.83;;;;;;;-2.74;80.06;95696.69;5089391;28;20229;-63
2021/03/05 04:48:41;;;;;;;44.73;20.67;;;;;;;-2.75;80.72;95698.44;5089695;28;20194;-63
2021/03/05 04:51:08;;;;;;;36.23;17.17;;;;;;;-2.87;80.94;95697.53;5089726;28;20678;-64
2021/03/05 04:53:35;;;;;;;44.30;18.90;;;;;;;-2.79;81.74;95699.06;5089676;28;20194;-62
2021/03/05 04:56:02;;;;;;;46.73;20.93;;;;;;;-2.70;81.60;95703.69;5089620;28;20708;-63
2021/03/05 04:58:29;;;;;;;45.13;20.73;;;;;;;-2.63;81.68;95704.41;5089381;28;20206;-63
2021/03/05 05:00:56;;;;;;;46.83;21.37;;;;;;;-2.52;82.63;95702.19;5089634;28;20694;-63
2021/03/05 05:03:24;;;;;;;58.33;33.13;;;;;;;-2.49;82.30;95701.78;5089725;28;20252;-64
2021/03/05 05:05:51;;;;;;;63.63;39.87;;;;;;;-2.57;83.14;95707.91;5089168;28;20316;-63
2021/03/05 05:08:18;;;;;;;56.27;30.87;;;;;;;-2.52;85.17;95707.28;5089223;28;20230;-62
2021/03/05 05:10:44;;;;;;;64.57;30.33;;;;;;;-2.43;86.59;95706.03;5091036;28;20200;-65
2021/03/05 05:13:11;;;;;;;57.73;26.87;;;;;;;-2.47;87.07;95705.69;5093183;28;20203;-64
2021/03/05 05:15:38;;;;;;;55.27;26.50;;;;;;;-2.39;87.64;95709.75;5092575;28;20257;-65
2021/03/05 05:18:08;;;;;;;59.77;26.90;;;;;;;-2.37;87.92;95705.22;5092945;28;20563;-64
2021/03/05 05:20:36;;;;;;;57.10;26.53;;;;;;;-2.22;88.13;95710.78;5092958;28;20606;-64
2021/03/05 05:23:04;;;;;;;59.83;27.10;;;;;;;-2.13;87.89;95711.28;5092932;28;20209;-63
2021/03/05 05:25:31;;;;;;;48.77;26.40;;;;;;;-2.06;87.98;95712.81;5092675;28;20204;-63
2021/03/05 05:27:57;;;;;;;63.37;26.93;;;;;;;-1.97;86.72;95720.94;5092758;28;20290;-63
2021/03/05 05:30:25;;;;;;;58.67;26.77;;;;;;;-2.00;87.11;95717.06;5092926;28;20538;-63
2021/03/05 05:32:52;;;;;;;61.57;26.97;;;;;;;-1.80;87.27;95715.13;5092591;28;20692;-63
2021/03/05 05:35:19;;;;;;;48.03;24.90;;;;;;;-1.84;86.68;95721.59;5093387;28;20255;-63
2021/03/05 05:37:49;;;;;;;55.33;22.87;;;;;;;-1.81;85.42;95725.53;5092853;28;20575;-65
2021/03/05 05:40:17;;;;;;;74.10;22.43;;;;;;;-1.75;86.13;95725.47;5092761;28;20199;-63
2021/03/05 05:42:47;;;;;;;70.73;25.07;;;;;;;-1.60;85.54;95726.88;5093182;28;20311;-63
2021/03/05 05:45:15;;;;;;;51.37;21.90;;;;;;;-1.60;85.63;95724.34;5092445;28;20282;-62
2021/03/05 05:47:43;;;;;;;42.43;20.60;;;;;;;-1.46;85.57;95734.19;5092295;28;20230;-64
2021/03/05 05:50:11;;;;;;;37.30;18.87;;;;;;;-1.39;85.10;95739.97;5092495;28;20196;-63
2021/03/05 05:52:40;;;;;;;35.07;17.43;;;;;;;-1.27;84.35;95731.63;5092510;28;20288;-64
2021/03/05 05:55:11;;;;;;;37.67;17.43;;;;;;;-1.20;84.04;95730.59;5092070;28;20231;-64
2021/03/05 05:57:38;;;;;;;53.03;17.50;;;;;;;-1.11;83.58;95731.06;5092014;28;20222;-63
2021/03/05 06:00:09;;;;;;;37.80;16.23;;;;;;;-1.05;85.08;95730.22;5091876;28;20270;-64
2021/03/05 06:02:37;;;;;;;26.17;15.33;;;;;;;-0.94;85.21;95732.78;5092114;28;20239;-64
2021/03/05 06:05:06;;;;;;;35.37;19.27;;;;;;;-0.70;85.67;95727.81;5091740;28;20284;-64
2021/03/05 06:07:34;;;;;;;34.67;21.47;;;;;;;-0.37;86.44;95722.22;5091663;28;20542;-64
2021/03/05 06:10:01;;;;;;;42.50;18.90;;;;;;;0.93;86.45;95723.53;5091814;28;20236;-65
2021/03/05 06:12:29;;;;;;;33.60;20.73;;;;;;;2.75;80.39;95720.50;5091959;28;20631;-64
2021/03/05 06:14:56;;;;;;;38.17;19.00;;;;;;;4.51;70.97;95718.00;5091607;28;20247;-64
2021/03/05 06:17:23;;;;;;;38.67;19.40;;;;;;;6.21;63.09;95720.50;5091975;28;20591;-64
2021/03/05 06:19:56;;;;;;;36.20;18.87;;;;;;;7.24;58.11;95725.88;5091550;28;20287;-64
2021/03/05 06:22:24;;;;;;;33.73;20.03;;;;;;;7.91;57.49;95721.84;5091384;28;20579;-63
2021/03/05 06:24:51;;;;;;;41.60;20.33;;;;;;;7.54;57.48;95720.53;5091561;28;20195;-63
2021/03/05 06:27:19;;;;;;;50.03;27.00;;;;;;;7.04;58.83;95736.28;5091785;28;20279;-64
2021/03/05 06:29:49;;;;;;;59.50;30.43;;;;;;;6.38;59.78;95733.88;5091513;28;20206;-64
2021/03/05 06:32:18;;;;;;;57.33;31.27;;;;;;;5.93;62.10;95734.66;5091309;28;20279;-63
2021/03/05 06:34:47;;;;;;;67.07;33.13;;;;;;;5.35;64.29;95735.84;5091181;28;20231;-64
2021/03/05 06:37:15;;;;;;;56.67;29.90;;;;;;;5.34;64.16;95729.13;5091157;28;20673;-64
2021/03/05 06:39:42;;;;;;;76.20;33.57;;;;;;;5.36;65.66;95724.50;5091071;28;20607;-64
2021/03/05 06:42:10;;;;;;;61.37;29.17;;;;;;;5.45;65.36;95731.50;5091291;28;20219;-64
2021/03/05 06:44:38;;;;;;;55.90;26.67;;;;;;;5.51;65.82;95734.84;5091272;28;20292;-64
2021/03/05 06:47:11;;;;;;;48.07;25.77;;;;;;;5.46;65.43;95732.25;5091004;28;20287;-63
2021/03/05 06:49:39;;;;;;;55.07;22.97;;;;;;;5.55;65.50;95720.44;5091076;28;20248;-65
2021/03/05 06:52:06;;;;;;;50.77;23.40;;;;;;;5.72;66.12;95722.78;5091203;28;20227;-64
2021/03/05 06:54:34;;;;;;;45.47;23.83;;;;;;;5.43;67.54;95719.91;5090845;28;20273;-64
2021/03/05 06:57:02;;;;;;;52.93;24.70;;;;;;;5.27;67.17;95726.03;5090855;28;20227;-62
2021/03/05 06:59:36;;;;;;;51.60;25.87;;;;;;;5.22;67.91;95728.59;5090522;28;20229;-63
2021/03/05 07:02:05;;;;;;;48.33;23.63;;;;;;;5.42;65.77;95726.84;5091206;28;20222;-64
2021/03/05 07:04:35;;;;;;;48.83;22.47;;;;;;;5.68;63.48;95732.06;5090931;28;20744;-64
2021/03/05 07:07:04;;;;;;;41.20;22.73;;;;;;;5.94;62.69;95731.84;5090934;28;20583;-64
2021/03/05 07:09:34;;;;;;;70.80;24.47;;;;;;;6.24;61.93;95732.84;5090760;28;20279;-64
2021/03/05 07:12:06;;;;;;;49.27;24.10;;;;;;;6.50;59.97;95734.38;5090707;28;20666;-63
2021/03/05 07:14:34;;;;;;;57.60;26.30;;;;;;;6.54;58.63;95735.41;5090568;28;20798;-64
2021/03/05 07:17:03;;;;;;;43.57;22.03;;;;;;;6.66;55.36;95723.00;5090809;28;20275;-64
2021/03/05 07:19:31;;;;;;;42.80;21.47;;;;;;;6.72;55.38;95727.13;5090756;28;20635;-64
2021/03/05 07:21:59;;;;;;;36.43;19.50;;;;;;;6.93;53.75;95732.97;5090450;28;20235;-64
2021/03/05 07:24:27;;;;;;;46.97;22.57;;;;;;;7.08;53.46;95737.31;5090291;28;20199;-62
2021/03/05 07:27:02;;;;;;;97.57;23.50;;;;;;;7.36;53.49;95731.50;5090326;28;20235;-64
2021/03/05 07:29:32;;;;;;;57.13;24.20;;;;;;;7.48;51.37;95734.53;5090417;28;20195;-64
2021/03/05 07:32:08;;;;;;;25.80;14.87;;;;;;;7.47;49.96;95729.66;5090417;28;20615;-65
2021/03/05 07:34:49;;;;;;;26.97;14.20;;;;;;;7.74;49.27;95722.22;5089446;28;20227;-64
2021/03/05 07:37:21;;;;;;;29.47;14.90;;;;;;;7.90;49.58;95717.72;5090143;28;20200;-63
2021/03/05 07:39:51;;;;;;;32.83;17.17;;;;;;;7.93;48.66;95715.38;5090271;28;20686;-64
2021/03/05 07:42:19;;;;;;;36.40;16.93;;;;;;;7.95;48.95;95709.91;5090224;28;20211;-65
2021/03/05 07:44:47;;;;;;;33.77;16.73;;;;;;;8.08;48.94;95704.88;5090086;28;20219;-64
2021/03/05 07:47:15;;;;;;;41.03;17.47;;;;;;;8.34;48.85;95710.66;5089957;28;20283;-64
2021/03/05 07:49:44;;;;;;;31.90;14.90;;;;;;;8.56;47.88;95705.78;5090317;28;20188;-65
2021/03/05 07:52:12;;;;;;;34.60;14.17;;;;;;;8.79;47.99;95704.25;5090143;28;20231;-65
2021/03/05 07:54:52;;;;;;;42.47;16.77;;;;;;;9.00;47.88;95702.19;5089688;28;20247;-65
2021/03/05 07:57:47;;;;;;;29.87;15.70;;;;;;;9.32;48.31;95694.50;5090711;28;20643;-64
2021/03/05 08:00:33;;;;;;;28.60;15.60;;;;;;;9.44;48.71;95694.09;5089691;28;20241;-62
2021/03/05 08:03:00;;;;;;;21.07;12.20;;;;;;;9.68;46.21;95691.41;5076636;28;20206;-63
2021/03/05 08:05:39;;;;;;;24.00;12.50;;;;;;;9.71;45.81;95686.47;5089767;28;20377;-64
2021/03/05 08:08:12;;;;;;;20.90;12.03;;;;;;;9.88;46.66;95686.69;5089757;28;20286;-64
2021/03/05 08:10:42;;;;;;;21.87;12.87;;;;;;;10.41;45.61;95685.63;5089899;28;20291;-63
2021/03/05 08:13:50;;;;;;;30.47;14.37;;;;;;;10.77;43.41;95686.50;5089989;28;20223;-64
2021/03/05 08:16:47;;;;;;;18.93;10.43;;;;;;;10.92;40.79;95683.59;5089635;28;20234;-65
2021/03/05 08:19:47;;;;;;;22.37;10.33;;;;;;;11.14;39.45;95675.09;5090137;28;20199;-63
2021/03/05 08:22:15;;;;;;;17.47;10.03;;;;;;;11.11;39.58;95663.44;5086671;28;20200;-65
2021/03/05 08:24:43;;;;;;;22.07;10.70;;;;;;;11.28;39.22;95665.44;5089627;28;20549;-64
2021/03/05 08:27:14;;;;;;;20.00;9.77;;;;;;;11.58;39.09;95664.78;5089574;28;20196;-64
2021/03/05 08:30:00;;;;;;;16.10;8.57;;;;;;;11.85;37.28;95652.75;5089596;28;20270;-64
2021/03/05 08:33:01;;;;;;;8.20;5.93;;;;;;;12.13;33.60;95648.16;5089794;28;20195;-64
2021/03/05 08:35:47;;;;;;;11.57;5.27;;;;;;;12.36;34.02;95642.59;5089426;28;20238;-64
2021/03/05 08:38:19;;;;;;;11.33;4.70;;;;;;;12.64;31.30;95648.41;5089495;28;20192;-64
2021/03/05 08:41:04;;;;;;;7.03;4.27;;;;;;;12.95;30.73;95635.28;5089439;28;20192;-64
2021/03/05 08:43:34;;;;;;;7.27;4.20;;;;;;;13.07;28.91;95639.91;5089277;28;20717;-65
2021/03/05 08:46:04;;;;;;;7.43;4.30;;;;;;;13.14;30.78;95635.81;5092014;28;20275;-65
2021/03/05 08:48:34;;;;;;;8.30;4.03;;;;;;;13.36;30.55;95637.50;5093552;28;20199;-64
2021/03/05 08:51:03;;;;;;;6.70;3.60;;;;;;;13.51;29.33;95628.44;5093786;28;20188;-64
2021/03/05 08:53:30;;;;;;;7.23;4.00;;;;;;;13.58;28.69;95626.13;5093336;28;20283;-64
2021/03/05 08:55:56;;;;;;;11.43;4.67;;;;;;;13.76;30.55;95625.03;5093374;28;20645;-65
2021/03/05 08:58:24;;;;;;;8.77;4.93;;;;;;;13.92;30.06;95626.09;5093150;28;20204;-65
2021/03/05 09:00:52;;;;;;;9.33;5.00;;;;;;;13.94;29.14;95629.16;5093652;28;20265;-66
2021/03/05 09:03:19;;;;;;;9.97;5.00;;;;;;;13.97;29.22;95619.94;5093827;28;20291;-65
2021/03/05 09:05:50;;;;;;;20.27;7.80;;;;;;;14.21;29.97;95615.72;5093438;28;20196;-65
2021/03/05 09:08:21;;;;;;;6.37;3.33;;;;;;;14.55;27.28;95619.28;5093496;28;20207;-65
2021/03/05 09:10:51;;;;;;;7.00;3.60;;;;;;;14.41;26.35;95610.91;5093298;28;20242;-65
2021/03/05 09:13:21;;;;;;;9.37;3.60;;;;;;;14.50;27.34;95612.41;5093365;28;20198;-64
2021/03/05 09:15:50;;;;;;;5.57;3.33;;;;;;;14.56;26.56;95605.91;5093251;28;20219;-65
2021/03/05 09:18:19;;;;;;;6.60;3.40;;;;;;;14.53;26.90;95597.94;5093328;28;20195;-64
2021/03/05 09:20:48;;;;;;;7.27;3.53;;;;;;;14.53;26.48;95593.47;5093283;28;20226;-65
2021/03/05 09:23:29;;;;;;;11.07;4.23;;;;;;;14.58;26.78;95592.53;5093018;28;20220;-65
2021/03/05 09:25:58;;;;;;;10.83;3.93;;;;;;;14.80;27.84;95594.09;5093138;28;20213;-65
2021/03/05 09:28:26;;;;;;;6.17;3.40;;;;;;;14.92;26.25;95588.94;5093259;28;20306;-63
2021/03/05 09:30:54;;;;;;;7.83;3.40;;;;;;;14.96;27.14;95587.22;5092997;28;20754;-63
2021/03/05 09:33:30;;;;;;;5.27;3.43;;;;;;;15.08;27.01;95585.44;5093037;28;20279;-65
2021/03/05 09:36:09;;;;;;;7.67;3.73;;;;;;;15.16;26.42;95589.06;5092842;28;20603;-64
2021/03/05 09:38:37;;;;;;;7.60;3.43;;;;;;;15.20;25.93;95578.72;5092881;28;20298;-64
2021/03/05 09:41:15;;;;;;;5.23;3.57;;;;;;;15.21;26.31;95583.66;5092790;28;20282;-65
2021/03/05 09:43:43;;;;;;;6.10;3.53;;;;;;;15.25;25.98;95578.53;5092592;28;20226;-64
2021/03/05 09:46:19;;;;;;;6.27;2.87;;;;;;;15.45;25.87;95575.13;5093086;28;20196;-64
2021/03/05 09:48:48;;;;;;;5.10;3.10;;;;;;;15.60;25.62;95571.19;5093341;28;20195;-65
2021/03/05 09:51:17;;;;;;;6.63;3.60;;;;;;;15.76;24.87;95570.25;5093254;28;20223;-65
2021/03/05 09:53:56;;;;;;;4.80;3.00;;;;;;;15.67;23.78;95568.81;5093394;28;20200;-64
2021/03/05 09:56:25;;;;;;;6.23;3.53;;;;;;;15.84;24.81;95558.16;5092071;28;20199;-64
2021/03/05 09:59:03;;;;;;;4.80;3.30;;;;;;;16.01;24.28;95562.44;5092170;28;20311;-65
2021/03/05 10:01:33;;;;;;;5.50;3.40;;;;;;;16.04;23.61;95552.06;5092496;28;20199;-65
2021/03/05 10:04:03;;;;;;;6.03;3.37;;;;;;;16.22;24.52;95553.41;5092826;28;20237;-65
2021/03/05 10:06:32;;;;;;;4.67;3.17;;;;;;;16.22;23.87;95553.41;5092444;28;20239;-65
2021/03/05 10:09:01;;;;;;;6.83;3.13;;;;;;;16.34;23.00;95556.00;5092209;28;20283;-64
2021/03/05 10:11:36;;;;;;;4.73;3.23;;;;;;;16.34;23.29;95557.88;5092670;28;20204;-65
2021/03/05 10:14:06;;;;;;;6.33;3.30;;;;;;;16.41;22.96;95557.34;5092143;28;20195;-65
2021/03/05 10:16:34;;;;;;;4.90;3.10;;;;;;;16.40;24.46;95547.94;5092336;28;20215;-64
2021/03/05 10:19:05;;;;;;;7.17;3.10;;;;;;;16.42;23.86;95551.00;5092235;28;20200;-65
2021/03/05 10:21:34;;;;;;;10.63;4.10;;;;;;;16.35;21.43;95546.28;5092080;28;20192;-64
2021/03/05 10:24:08;;;;;;;3.90;2.83;;;;;;;16.32;22.02;95546.97;5091910;28;20661;-65
2021/03/05 10:26:35;;;;;;;3.70;2.77;;;;;;;16.41;21.68;95546.84;5091834;28;20655;-63
2021/03/05 10:29:04;;;;;;;5.73;2.70;;;;;;;16.40;21.61;95547.94;5092003;28;20256;-64
2021/03/05 10:31:43;;;;;;;4.00;2.67;;;;;;;16.46;21.36;95542.16;5091829;28;20285;-64
2021/03/05 10:34:25;;;;;;;8.52;3.28;;;;;;;16.39;21.76;95528.81;5091658;28;20196;-64
2021/03/05 10:36:53;;;;;;;4.63;2.63;;;;;;;16.50;21.21;95529.91;5091903;28;20255;-64
2021/03/05 10:39:20;;;;;;;7.63;3.33;;;;;;;16.32;21.70;95521.50;5091929;28;20231;-64
2021/03/05 10:41:58;;;;;;;4.00;2.87;;;;;;;16.41;21.58;95523.22;5091726;28;20212;-65
2021/03/05 10:44:27;;;;;;;4.10;3.13;;;;;;;16.43;20.78;95516.59;5091747;28;20226;-64
2021/03/05 10:46:56;;;;;;;7.63;2.90;;;;;;;16.68;21.84;95517.34;5091892;28;20195;-63
2021/03/05 10:49:25;;;;;;;5.30;2.90;;;;;;;16.88;21.10;95516.44;5091673;28;20218;-64
2021/03/05 10:51:52;;;;;;;4.03;2.60;;;;;;;16.95;21.74;95511.38;5091585;28;20574;-65
2021/03/05 10:54:19;;;;;;;5.30;2.67;;;;;;;17.03;20.98;95499.22;5091413;28;20319;-64
2021/03/05 10:56:48;;;;;;;6.13;2.93;;;;;;;16.98;21.11;95497.59;5091377;28;20199;-64
2021/03/05 10:59:16;;;;;;;6.47;3.70;;;;;;;17.02;20.70;95489.78;5090922;28;20725;-64
2021/03/05 11:01:43;;;;;;;5.13;2.90;;;;;;;16.85;20.83;95485.56;5091862;28;20224;-64
2021/03/05 11:04:14;;;;;;;3.93;2.60;;;;;;;16.82;22.27;95480.22;5091239;28;20188;-64
2021/03/05 11:06:42;;;;;;;8.37;3.00;;;;;;;16.94;20.03;95478.31;5091018;28;20701;-65
2021/03/05 11:09:10;;;;;;;4.83;2.93;;;;;;;16.92;19.97;95475.28;5090959;28;20662;-64
2021/03/05 11:11:37;;;;;;;7.83;4.83;;;;;;;16.99;20.48;95469.44;5091085;28;20662;-65
2021/03/05 11:14:04;;;;;;;4.47;3.07;;;;;;;17.22;20.60;95462.56;5090969;28;20192;-65
2021/03/05 11:16:32;;;;;;;22.00;10.07;;;;;;;17.20;21.25;95462.13;5090977;28;20195;-64
2021/03/05 11:18:58;;;;;;;6.40;3.57;;;;;;;17.34;21.16;95459.88;5091044;28;20224;-64
2021/03/05 11:21:26;;;;;;;4.00;2.70;;;;;;;17.55;20.76;95454.41;5090904;28;20649;-64
2021/03/05 11:23:55;;;;;;;4.77;2.70;;;;;;;17.62;21.16;95452.75;5090808;28;20199;-64
2021/03/05 11:26:23;;;;;;;3.63;2.80;;;;;;;17.36;20.28;95451.66;5090765;28;20200;-64
2021/03/05 11:28:50;;;;;;;3.60;2.70;;;;;;;17.24;21.52;95449.84;5090995;28;20206;-64
2021/03/05 11:31:18;;;;;;;4.15;2.85;;;;;;;17.48;20.32;95441.88;5090887;28;20566;-65
2021/03/05 11:33:46;;;;;;;5.03;2.40;;;;;;;17.44;21.32;95434.97;5090744;28;20282;-65
2021/03/05 11:36:13;;;;;;;3.67;2.43;;;;;;;17.14;21.75;95426.72;5090640;28;20242;-64
2021/03/05 11:38:40;;;;;;;5.27;2.90;;;;;;;17.09;20.70;95426.94;5090643;28;20187;-63